الصفحة الرئيسية
METAR-TAF:

METAR-TAF

مطار :

بنغالور, الهند

دائرة عرض: 12-57-00N, خط طول: 077-40-06E, ارتفاع: 888 متر

مراقبة الطقس الحالي

تاريخ ووقت الإصدار 21 دقيقة قبل الساعة 06:00UTC
ريح 10 عقدة من الغرب/الجنوب الغربي
درجة الحرارة 24°درجة مئوية
الرطوبة 89%
ضغط 1013 hPa
الرؤية: 5000 متر
غيوم قليلة على ارتفاع 800 قدم
غيوم متفرقة على ارتفاع 1200 قدم
ملبد بالغيوم على ارتفاع 8000 قدم
رذاذ خفيف

METAR: VOBG 100600Z 25010KT 5000 -DZ FEW008 SCT012 OVC080 24/22 Q1013 NOSIG

زمن: 11:51 (06:21 UTC)

توقعات

تاريخ ووقت الإصدار 1ساعة و 21 دقيقة قبل الساعة 05:00UTC
التوقعات صالحة من10 الساعة 06 UTC إلى 10 الساعة 15 UTC
ريح 10 عقدة من الغرب/الجنوب الغربي
الرؤية: 6000 متر
غيوم متفرقة على ارتفاع 1000 قدم
غيوم مفككة على ارتفاع 8000 قدم
مؤقت
من 10 الساعة 09 UTC إلى 10 الساعة 15 UTC
الرؤية: 4000 متر
غيوم متفرقة على ارتفاع 800 قدم
غيوم متفرقة على ارتفاع 1200 قدم
غيوم قليلة على ارتفاع 2500 قدم, مزنة ركامية.
غيوم مفككة على ارتفاع 8000 قدم
مطر, رذاذ

TAF: VOBG 100500Z 1006/1015 24010KT 6000 SCT010 BKN080 TEMPO 1009/1015 4000 RA DZ SCT008 SCT012 FEW025CB BKN080

أرصاد الطقس والتوقعات من أكثر من 4000 مطار (تقارير الطقس للمطار METAR والتنبؤ بالطقس بالمطارTAF).

المحطات المتاحة هي النقط الصفراء والحمراء على الخريطة.

حرك المؤشر فوق النقطة لمعرفة اسم المحطة.

ثم انقر لمعرفة أرصاد وتوقعات الطقس.

لتغيير الخارطة: اضغط على الأزرار الخضراء مع رمز الصليب الأسود للتكبير. على الزر الأخضر مع شرطة للتصغير، أو على الأسهم الخضراء للخرائط المجاورة.


METAR-TAF: